Time;durP1;ratioP1;P1;durP2;ratioP2;P2;SDS_P1;SDS_P2;PMS_P1;PMS_P2;Temp;Humidity;BMP_temperature;BMP_pressure;BME280_temperature;BME280_humidity;BME280_pressure;Samples;Min_cycle;Max_cycle;Signal;HPM_P1;HPM_P2
2022/07/23 00:01:29;;;;;;;;;26.00;22.25;;;;;24.42;100.00;101541.22;5018748;28;45631;-69
2022/07/23 00:03:55;;;;;;;;;26.67;23.00;;;;;24.50;100.00;101539.25;5018131;28;45488;-68
2022/07/23 00:06:21;;;;;;;;;27.25;25.50;;;;;24.53;100.00;101539.69;5021572;28;45330;-68
2022/07/23 00:08:47;;;;;;;;;24.67;22.67;;;;;24.61;100.00;101539.44;5017374;28;45425;-68
2022/07/23 00:11:13;;;;;;;;;26.75;23.75;;;;;24.55;100.00;101531.94;5020785;28;45291;-68
2022/07/23 00:13:38;;;;;;;;;27.33;26.00;;;;;24.54;100.00;101532.19;5018028;28;46125;-68
2022/07/23 00:16:04;;;;;;;;;26.00;25.33;;;;;24.49;100.00;101538.41;5024948;28;45323;-68
2022/07/23 00:18:29;;;;;;;;;21.00;21.00;;;;;24.51;100.00;101516.81;5017890;28;45544;-68
2022/07/23 00:20:54;;;;;;;;;27.00;24.00;;;;;24.60;100.00;101529.38;5024170;28;45568;-68
2022/07/23 00:23:20;;;;;;;;;27.33;26.00;;;;;24.58;100.00;101542.63;5016558;28;45693;-68
2022/07/23 00:25:45;;;;;;;;;31.00;27.50;;;;;24.52;100.00;101524.09;5020023;28;45477;-68
2022/07/23 00:28:11;;;;;;;;;26.00;26.00;;;;;24.64;100.00;101532.56;5018641;28;45317;-69
2022/07/23 00:30:37;;;;;;;;;24.50;24.25;;;;;24.64;100.00;101530.63;5021678;28;45257;-68
2022/07/23 00:33:05;;;;;;;;;26.00;24.67;;;;;24.60;100.00;101532.16;5018270;28;47750;-69
2022/07/23 00:35:36;;;;;;;;;28.00;27.50;;;;;24.66;100.00;101528.50;5015845;28;45521;-68
2022/07/23 00:38:03;;;;;;;;;22.67;22.67;;;;;24.59;100.00;101533.22;5019612;28;45293;-67
2022/07/23 00:40:29;;;;;;;;;25.33;23.00;;;;;24.52;100.00;101528.78;5013346;28;45619;-67
2022/07/23 00:42:55;;;;;;;;;31.75;25.50;;;;;24.54;100.00;101526.66;5020268;28;46404;-68
2022/07/23 00:45:21;;;;;;;;;26.75;25.25;;;;;24.57;100.00;101520.63;5018438;28;45747;-69
2022/07/23 00:47:46;;;;;;;;;24.67;24.67;;;;;24.62;100.00;101516.09;5020787;28;45584;-69
2022/07/23 00:50:13;;;;;;;;;26.33;22.67;;;;;24.64;100.00;101525.06;5022764;28;45603;-67
2022/07/23 00:52:39;;;;;;;;;22.75;22.25;;;;;24.66;100.00;101530.41;5016536;28;46267;-68
2022/07/23 00:55:05;;;;;;;;;20.67;20.67;;;;;24.69;100.00;101522.47;5019447;28;45332;-68
2022/07/23 00:57:31;;;;;;;;;21.33;19.67;;;;;24.73;100.00;101517.34;5022465;28;45244;-68
2022/07/23 00:59:57;;;;;;;;;26.33;22.00;;;;;24.61;100.00;101519.97;5019088;28;45232;-69
2022/07/23 01:02:24;;;;;;;;;17.67;15.33;;;;;24.41;100.00;101514.50;5022559;28;46184;-69
2022/07/23 01:04:50;;;;;;;;;20.33;18.67;;;;;24.50;100.00;101523.44;5015036;28;45415;-70
2022/07/23 01:07:16;;;;;;;;;24.67;21.33;;;;;24.47;100.00;101525.81;5022377;28;45418;-69
2022/07/23 01:09:42;;;;;;;;;27.00;24.00;;;;;24.43;100.00;101511.50;5015279;28;45377;-69
2022/07/23 01:12:07;;;;;;;;;27.33;25.00;;;;;24.50;100.00;101511.47;5023584;28;45473;-69
2022/07/23 01:14:33;;;;;;;;;26.67;22.67;;;;;24.52;100.00;101515.75;5014886;28;45320;-69
2022/07/23 01:16:58;;;;;;;;;25.50;24.25;;;;;24.34;100.00;101512.81;5024018;28;45341;-69
2022/07/23 01:19:23;;;;;;;;;20.33;20.00;;;;;24.22;100.00;101525.69;5010828;28;45377;-68
2022/07/23 01:21:51;;;;;;;;;29.00;24.00;;;;;24.27;100.00;101512.00;5023557;28;46067;-69
2022/07/23 01:24:18;;;;;;;;;20.67;20.00;;;;;24.24;100.00;101524.44;5017447;28;45255;-69
2022/07/23 01:26:45;;;;;;;;;22.33;21.67;;;;;24.16;100.00;101519.06;5038092;28;45288;-70
2022/07/23 01:29:11;;;;;;;;;21.50;21.25;;;;;24.20;100.00;101506.47;5021335;28;45367;-68
2022/07/23 01:31:36;;;;;;;;;25.50;20.00;;;;;24.36;100.00;101505.13;5020973;28;46115;-68
2022/07/23 01:34:02;;;;;;;;;28.75;25.75;;;;;24.40;100.00;101512.78;5007611;28;45511;-68
2022/07/23 01:36:28;;;;;;;;;17.67;17.33;;;;;24.47;100.00;101509.16;5016920;28;45305;-68
2022/07/23 01:38:54;;;;;;;;;22.33;19.67;;;;;24.46;100.00;101513.00;5022762;28;45466;-70
2022/07/23 01:41:20;;;;;;;;;18.67;18.67;;;;;24.41;100.00;101506.16;5019501;28;45356;-68
2022/07/23 01:43:45;;;;;;;;;22.00;20.67;;;;;24.36;100.00;101510.69;5016946;28;45205;-69
2022/07/23 01:46:11;;;;;;;;;20.00;17.67;;;;;24.34;99.72;101519.25;5014885;28;45178;-69
2022/07/23 01:48:36;;;;;;;;;20.67;20.00;;;;;24.28;99.21;101513.72;5018322;28;45462;-68
2022/07/23 01:51:02;;;;;;;;;20.33;18.67;;;;;24.37;100.00;101513.25;5021060;28;45414;-69
2022/07/23 01:53:28;;;;;;;;;18.00;18.00;;;;;24.39;100.00;101515.81;5015601;28;45315;-69
2022/07/23 01:55:53;;;;;;;;;25.00;25.00;;;;;24.34;100.00;101507.28;5022061;28;45241;-69
2022/07/23 01:58:18;;;;;;;;;25.33;22.00;;;;;24.40;100.00;101506.41;5018628;28;45384;-69
2022/07/23 02:00:44;;;;;;;;;20.67;18.33;;;;;24.42;100.00;101510.66;5021010;28;45349;-68
2022/07/23 02:03:09;;;;;;;;;22.00;20.67;;;;;24.46;100.00;101501.91;5018011;28;45350;-69
2022/07/23 02:05:34;;;;;;;;;22.00;19.33;;;;;24.43;98.79;101498.47;5018850;28;45617;-69
2022/07/23 02:08:00;;;;;;;;;19.33;18.67;;;;;24.52;98.70;101504.63;5018611;28;45524;-67
2022/07/23 02:10:26;;;;;;;;;19.00;19.00;;;;;24.56;98.45;101500.31;5022406;28;45492;-68
2022/07/23 02:12:52;;;;;;;;;17.67;17.67;;;;;24.56;99.31;101497.53;5020055;28;45446;-68
2022/07/23 02:15:17;;;;;;;;;23.25;22.75;;;;;24.53;100.00;101500.78;5019460;28;45371;-68
2022/07/23 02:17:43;;;;;;;;;24.33;20.33;;;;;24.39;100.00;101504.72;5021692;28;45445;-69
2022/07/23 02:20:09;;;;;;;;;28.00;22.75;;;;;24.23;100.00;101506.06;5021205;28;48186;-69
2022/07/23 02:22:35;;;;;;;;;27.00;25.50;;;;;24.12;100.00;101511.38;5019825;28;45386;-68
2022/07/23 02:25:01;;;;;;;;;27.50;26.50;;;;;24.16;100.00;101504.34;5012288;28;45328;-68
2022/07/23 02:27:28;;;;;;;;;21.75;20.25;;;;;24.21;100.00;101504.56;5021556;28;45228;-69
2022/07/23 02:29:53;;;;;;;;;21.00;20.33;;;;;24.35;100.00;101508.97;5016405;28;46323;-70
2022/07/23 02:32:18;;;;;;;;;23.75;23.75;;;;;24.31;100.00;101513.28;5020595;28;45277;-68
2022/07/23 02:34:44;;;;;;;;;26.75;25.00;;;;;24.28;100.00;101516.50;5015073;28;45484;-67
2022/07/23 02:37:09;;;;;;;;;25.50;25.50;;;;;24.26;100.00;101518.63;5018242;28;45599;-68
2022/07/23 02:39:35;;;;;;;;;25.33;24.33;;;;;24.29;100.00;101526.53;5016483;28;47115;-68
2022/07/23 02:42:01;;;;;;;;;27.75;24.75;;;;;24.10;100.00;101527.44;5019731;28;45333;-68
2022/07/23 02:44:26;;;;;;;;;24.75;24.50;;;;;24.01;100.00;101529.59;5019110;28;45406;-68
2022/07/23 02:46:52;;;;;;;;;34.75;28.50;;;;;24.08;100.00;101535.13;5023323;28;45251;-68
2022/07/23 02:49:17;;;;;;;;;25.75;25.00;;;;;24.02;100.00;101532.16;5017186;28;45307;-69
2022/07/23 02:51:42;;;;;;;;;26.00;21.67;;;;;24.11;100.00;101529.97;5022373;28;45332;-68
2022/07/23 02:54:08;;;;;;;;;23.67;21.67;;;;;24.09;100.00;101503.50;5016009;28;45367;-68
2022/07/23 02:56:33;;;;;;;;;23.67;22.33;;;;;24.22;100.00;101529.34;5022868;28;45354;-67
2022/07/23 02:58:58;;;;;;;;;19.00;19.00;;;;;24.20;100.00;101534.25;5015372;28;45698;-68
2022/07/23 03:01:24;;;;;;;;;21.33;18.67;;;;;24.20;100.00;101534.25;5022421;28;45392;-68
2022/07/23 03:03:49;;;;;;;;;19.67;18.33;;;;;24.20;100.00;101542.56;5014942;28;45320;-68
2022/07/23 03:06:14;;;;;;;;;26.00;24.33;;;;;24.11;100.00;101538.28;5008861;28;45169;-69
2022/07/23 03:08:40;;;;;;;;;17.33;17.33;;;;;24.05;100.00;101547.50;5017415;28;45468;-69
2022/07/23 03:11:10;;;;;;;;;25.00;21.50;;;;;23.99;100.00;101545.59;5021874;28;45259;-68
2022/07/23 03:13:36;;;;;;;;;24.00;22.00;;;;;23.91;100.00;101545.81;5016015;28;45494;-69
2022/07/23 03:16:02;;;;;;;;;21.67;20.00;;;;;23.83;100.00;101549.69;5019278;28;45396;-68
2022/07/23 03:18:27;;;;;;;;;25.00;22.00;;;;;23.92;100.00;101545.63;5014685;28;47303;-69
2022/07/23 03:20:52;;;;;;;;;22.67;20.00;;;;;23.89;100.00;101550.75;5014399;28;45460;-67
2022/07/23 03:23:18;;;;;;;;;23.00;20.33;;;;;23.99;100.00;101554.78;5014594;28;45555;-68
2022/07/23 03:25:43;;;;;;;;;21.00;19.00;;;;;24.05;100.00;101542.81;5013693;28;45556;-68
2022/07/23 03:28:08;;;;;;;;;20.67;18.33;;;;;24.15;100.00;101547.91;5016916;28;45491;-68
2022/07/23 03:30:34;;;;;;;;;19.67;18.33;;;;;24.24;100.00;101548.56;5016453;28;45482;-67
2022/07/23 03:32:59;;;;;;;;;18.67;18.67;;;;;24.27;100.00;101557.28;5018397;28;45477;-67
2022/07/23 03:35:25;;;;;;;;;20.00;18.33;;;;;24.21;100.00;101560.09;5014875;28;45541;-68
2022/07/23 03:37:50;;;;;;;;;24.67;22.67;;;;;24.08;100.00;101557.34;5021532;28;46517;-68
2022/07/23 03:40:15;;;;;;;;;20.00;20.00;;;;;23.72;100.00;101550.34;5014809;28;45397;-67
2022/07/23 03:42:42;;;;;;;;;24.67;22.00;;;;;23.87;100.00;101561.22;5006957;28;45348;-68
2022/07/23 03:45:07;;;;;;;;;21.33;19.33;;;;;23.87;100.00;101559.31;5021684;28;45533;-67
2022/07/23 03:47:33;;;;;;;;;16.33;15.33;;;;;23.84;100.00;101556.94;5022730;28;46115;-68
2022/07/23 03:49:58;;;;;;;;;24.33;22.67;;;;;23.72;100.00;101558.69;5017378;28;45569;-70
2022/07/23 03:52:23;;;;;;;;;22.33;20.33;;;;;23.78;98.94;101557.81;5024134;28;45314;-68
2022/07/23 03:54:49;;;;;;;;;22.67;18.67;;;;;23.76;96.98;101568.28;5018143;28;45315;-70
2022/07/23 03:57:14;;;;;;;;;18.33;16.67;;;;;23.86;97.44;101553.97;5024448;28;46390;-68
2022/07/23 03:59:39;;;;;;;;;19.00;17.33;;;;;23.86;95.75;101571.47;5014388;28;45471;-67
2022/07/23 04:02:05;;;;;;;;;23.33;20.00;;;;;23.72;95.35;101569.78;5022618;28;45320;-67
2022/07/23 04:04:30;;;;;;;;;16.67;16.67;;;;;23.67;94.82;101572.31;5015289;28;46093;-67
2022/07/23 04:06:56;;;;;;;;;22.67;18.33;;;;;23.71;95.75;101576.38;5020292;28;45504;-67
2022/07/23 04:09:21;;;;;;;;;20.33;19.00;;;;;23.59;96.50;101569.78;5016183;28;45334;-67
2022/07/23 04:11:46;;;;;;;;;19.33;19.00;;;;;23.73;95.69;101573.41;5018244;28;45360;-67
2022/07/23 04:14:12;;;;;;;;;16.00;15.67;;;;;23.73;95.71;101571.50;5015972;28;45437;-67
2022/07/23 04:16:37;;;;;;;;;21.00;17.00;;;;;23.61;94.89;101587.06;5014669;28;46469;-67
2022/07/23 04:19:04;;;;;;;;;21.25;16.75;;;;;23.57;94.67;101572.78;5021534;28;45305;-67
2022/07/23 04:21:30;;;;;;;;;24.50;23.00;;;;;23.49;94.55;101588.78;5023103;28;45351;-67
2022/07/23 04:23:55;;;;;;;;;22.00;20.67;;;;;23.44;95.14;101583.00;5019961;28;45252;-68
2022/07/23 04:26:21;;;;;;;;;20.33;18.00;;;;;23.34;94.94;101582.53;5024412;28;46398;-67
2022/07/23 04:28:46;;;;;;;;;24.33;19.00;;;;;23.40;95.41;101581.69;5019637;28;45323;-68
2022/07/23 04:31:12;;;;;;;;;21.67;20.00;;;;;23.55;95.03;101586.00;5021550;28;45254;-67
2022/07/23 04:33:37;;;;;;;;;21.67;21.00;;;;;23.51;95.35;101578.31;5026025;28;45706;-67
2022/07/23 04:36:02;;;;;;;;;16.00;15.67;;;;;23.53;94.45;101584.50;5027440;28;47875;-67
2022/07/23 04:38:28;;;;;;;;;15.33;15.33;;;;;23.67;94.50;101589.81;5018088;28;45406;-68
2022/07/23 04:40:53;;;;;;;;;21.67;16.00;;;;;23.81;94.05;101590.69;5021577;28;45386;-67
2022/07/23 04:43:19;;;;;;;;;23.00;19.75;;;;;23.89;93.06;101587.66;5022518;28;45441;-67
2022/07/23 04:45:44;;;;;;;;;22.33;20.33;;;;;23.87;93.56;101587.06;5014420;28;45403;-68
2022/07/23 04:48:10;;;;;;;;;20.33;19.67;;;;;23.68;92.76;101593.47;5019955;28;45334;-68
2022/07/23 04:50:35;;;;;;;;;25.67;20.33;;;;;23.41;95.00;101589.81;5022214;28;45796;-68
2022/07/23 04:53:00;;;;;;;;;21.00;21.00;;;;;23.35;95.59;101595.34;5020407;28;45400;-67
2022/07/23 04:55:26;;;;;;;;;12.75;10.00;;;;;23.55;94.41;101599.00;5020418;28;45444;-69
2022/07/23 04:57:51;;;;;;;;;25.25;22.00;;;;;23.52;95.77;101603.09;5020503;28;45466;-68
2022/07/23 05:00:17;;;;;;;;;25.67;22.00;;;;;23.61;95.25;101601.78;5020368;28;45451;-68
2022/07/23 05:02:42;;;;;;;;;21.67;17.00;;;;;23.66;95.71;101603.94;5021628;28;45359;-67
2022/07/23 05:05:07;;;;;;;;;19.67;19.33;;;;;23.52;95.50;101602.22;5018307;28;46161;-67
2022/07/23 05:07:33;;;;;;;;;22.00;19.33;;;;;23.54;95.70;101597.28;5020338;28;45372;-68
2022/07/23 05:09:58;;;;;;;;;24.33;21.00;;;;;23.53;95.64;101601.13;5019192;28;45595;-69
2022/07/23 05:12:24;;;;;;;;;22.00;20.00;;;;;23.50;95.66;101594.13;5008173;28;45358;-68
2022/07/23 05:14:49;;;;;;;;;21.33;21.00;;;;;23.43;94.99;101600.69;5017873;28;45395;-68
2022/07/23 05:17:14;;;;;;;;;30.25;27.50;;;;;23.41;95.13;101588.94;5022188;28;45343;-68
2022/07/23 05:19:40;;;;;;;;;22.00;22.00;;;;;23.53;95.50;101596.44;5021877;28;45868;-68
2022/07/23 05:22:05;;;;;;;;;22.67;21.00;;;;;23.68;95.20;101604.56;5023556;28;45512;-68
2022/07/23 05:24:30;;;;;;;;;20.00;18.00;;;;;23.75;94.34;101604.53;5017219;28;46156;-68
2022/07/23 05:26:56;;;;;;;;;24.00;19.67;;;;;23.76;94.71;101593.25;5022946;28;45375;-68
2022/07/23 05:29:21;;;;;;;;;20.33;19.67;;;;;23.86;93.43;101599.22;5017894;28;45346;-67
2022/07/23 05:31:46;;;;;;;;;21.33;18.33;;;;;23.83;94.25;101602.41;5013976;28;45631;-67
2022/07/23 05:34:12;;;;;;;;;22.67;21.67;;;;;23.94;93.76;101593.44;5018294;28;45498;-68
2022/07/23 05:36:37;;;;;;;;;25.00;21.25;;;;;24.06;91.46;101594.47;5009727;28;45419;-67
2022/07/23 05:39:03;;;;;;;;;26.25;22.25;;;;;23.86;91.91;101599.22;5019768;28;45457;-68
2022/07/23 05:41:29;;;;;;;;;27.67;19.67;;;;;24.03;90.84;101594.09;5023391;28;45291;-68
2022/07/23 05:43:54;;;;;;;;;25.67;22.33;;;;;24.07;89.60;101600.91;5020016;28;46315;-68
2022/07/23 05:46:19;;;;;;;;;27.00;25.75;;;;;24.15;89.15;101592.34;5022895;28;45352;-67
2022/07/23 05:48:49;;;;;;;;;23.50;22.00;;;;;24.11;88.61;101601.34;5019680;28;45546;-67
2022/07/23 05:51:19;;;;;;;;;23.00;22.33;;;;;24.21;89.48;101598.97;5022070;28;46137;-67
2022/07/23 05:53:44;;;;;;;;;21.00;19.67;;;;;24.14;89.62;101603.66;5018775;28;45703;-67
2022/07/23 05:56:10;;;;;;;;;16.67;15.00;;;;;24.30;89.59;101606.00;5020314;28;45422;-68
2022/07/23 05:58:35;;;;;;;;;20.00;20.00;;;;;24.37;89.56;101604.06;5019481;28;45373;-69
2022/07/23 06:01:00;;;;;;;;;22.67;22.00;;;;;24.35;89.57;101612.59;5019334;28;45306;-68
2022/07/23 06:03:26;;;;;;;;;25.67;22.67;;;;;24.35;89.56;101614.53;5015058;28;46634;-68
2022/07/23 06:05:51;;;;;;;;;26.67;21.33;;;;;24.58;88.53;101612.09;5018299;28;45423;-69
2022/07/23 06:08:16;;;;;;;;;27.00;25.00;;;;;24.74;87.44;101603.28;5017250;28;45420;-68
2022/07/23 06:10:42;;;;;;;;;23.75;20.25;;;;;24.82;86.53;101608.59;5021536;28;45505;-68
2022/07/23 06:13:07;;;;;;;;;25.75;24.00;;;;;24.75;87.93;101599.44;5020426;28;46453;-68
2022/07/23 06:15:32;;;;;;;;;29.00;24.25;;;;;24.80;88.20;101616.28;5015365;28;45385;-68
2022/07/23 06:17:58;;;;;;;;;23.75;22.50;;;;;24.88;87.91;101614.31;5020675;28;45514;-67
2022/07/23 06:20:23;;;;;;;;;23.50;20.50;;;;;24.92;87.16;101622.00;5019597;28;45474;-67
2022/07/23 06:22:48;;;;;;;;;34.00;30.00;;;;;24.96;87.57;101622.44;5003724;28;47421;-68
2022/07/23 06:25:16;;;;;;;;;32.75;29.25;;;;;24.94;88.30;101624.59;5015467;28;45430;-69
2022/07/23 06:27:41;;;;;;;;;37.25;30.00;;;;;24.93;88.53;101620.09;5014260;28;45808;-68
2022/07/23 06:30:08;;;;;;;;;35.75;31.25;;;;;24.66;89.57;101630.44;5020029;28;45336;-68
2022/07/23 06:32:33;;;;;;;;;33.25;29.75;;;;;24.66;90.00;101633.22;5020025;28;45355;-68
2022/07/23 06:34:58;;;;;;;;;34.00;30.75;;;;;24.67;90.43;101632.16;5018365;28;45333;-68
2022/07/23 06:37:24;;;;;;;;;39.75;33.50;;;;;24.68;90.71;101637.50;5018748;28;45395;-67
2022/07/23 06:39:49;;;;;;;;;32.00;31.25;;;;;24.65;91.26;101632.38;5013256;28;45358;-68
2022/07/23 06:42:15;;;;;;;;;29.75;29.50;;;;;24.78;91.01;101632.31;5012080;28;45454;-68
2022/07/23 06:44:41;;;;;;;;;47.75;34.25;;;;;24.93;89.86;101639.56;5018574;28;45479;-67
2022/07/23 06:47:07;;;;;;;;;32.75;28.50;;;;;25.10;88.99;101643.53;5022647;28;46671;-69
2022/07/23 06:49:32;;;;;;;;;39.75;31.00;;;;;25.07;89.13;101638.41;5016854;28;45379;-68
2022/07/23 06:51:58;;;;;;;;;35.50;31.25;;;;;25.05;90.56;101640.59;5022269;28;46758;-69
2022/07/23 06:54:23;;;;;;;;;37.50;32.50;;;;;25.05;90.92;101637.81;5015659;28;45263;-69
2022/07/23 06:56:48;;;;;;;;;38.50;34.25;;;;;24.97;89.79;101635.28;5022581;28;45457;-68
2022/07/23 06:59:14;;;;;;;;;46.50;36.50;;;;;24.84;91.69;101645.31;5016070;28;45466;-69
2022/07/23 07:01:39;;;;;;;;;45.75;36.25;;;;;24.66;92.43;101636.88;5020870;28;47835;-69
2022/07/23 07:04:04;;;;;;;;;47.25;38.50;;;;;24.76;93.37;101655.88;5015062;28;45260;-68
2022/07/23 07:06:30;;;;;;;;;43.75;35.25;;;;;24.83;92.94;101654.78;5018505;28;45319;-68
2022/07/23 07:08:56;;;;;;;;;48.50;37.25;;;;;24.96;92.44;101653.88;5014572;28;45501;-68
2022/07/23 07:11:21;;;;;;;;;45.25;36.00;;;;;24.94;91.87;101663.50;5016655;28;47510;-68
2022/07/23 07:13:46;;;;;;;;;47.50;36.75;;;;;25.05;91.76;101665.59;5014639;28;45395;-69
2022/07/23 07:16:12;;;;;;;;;42.75;36.00;;;;;25.01;91.06;101656.84;5024421;28;45264;-69
2022/07/23 07:18:37;;;;;;;;;44.50;37.00;;;;;25.12;90.79;101660.88;5014000;28;45263;-68
2022/07/23 07:21:02;;;;;;;;;49.25;38.50;;;;;25.15;91.97;101671.53;5018531;28;46510;-68
2022/07/23 07:23:28;;;;;;;;;48.75;39.00;;;;;25.06;92.18;101673.69;5033338;28;45374;-68
2022/07/23 07:25:53;;;;;;;;;52.00;41.00;;;;;25.06;91.73;101683.97;5018187;28;45195;-68
2022/07/23 07:28:18;;;;;;;;;43.75;36.50;;;;;25.08;92.27;101681.81;5018875;28;45271;-69
2022/07/23 07:30:44;;;;;;;;;40.00;33.50;;;;;25.22;91.20;101683.47;5015829;28;45508;-68
2022/07/23 07:33:09;;;;;;;;;41.50;34.25;;;;;25.35;90.35;101682.56;5021481;28;45398;-68
2022/07/23 07:35:34;;;;;;;;;32.50;30.50;;;;;25.50;89.41;101691.41;5014946;28;45624;-68
2022/07/23 07:38:00;;;;;;;;;43.50;38.00;;;;;25.38;89.54;101682.09;5021463;28;45388;-68
2022/07/23 07:40:26;;;;;;;;;49.50;38.50;;;;;25.40;89.90;101685.50;5017120;28;46069;-69
2022/07/23 07:42:53;;;;;;;;;47.50;36.75;;;;;25.63;89.42;101684.97;5022657;28;45341;-68
2022/07/23 07:45:23;;;;;;;;;54.75;43.25;;;;;25.58;87.21;101689.25;5016304;28;45398;-69
2022/07/23 07:47:48;;;;;;;;;54.00;39.50;;;;;25.70;87.60;101691.34;5021589;28;45375;-68
2022/07/23 07:50:13;;;;;;;;;49.75;40.00;;;;;25.80;88.76;101700.03;5015522;28;46281;-68
2022/07/23 07:52:39;;;;;;;;;53.75;42.00;;;;;25.53;88.32;101689.06;5023022;28;45316;-69
2022/07/23 07:55:07;;;;;;;;;45.25;36.50;;;;;25.61;88.43;101701.03;5023592;28;45357;-68
2022/07/23 07:57:32;;;;;;;;;50.75;40.00;;;;;25.87;87.98;101695.25;5023322;28;45402;-67
2022/07/23 07:59:58;;;;;;;;;53.25;43.75;;;;;25.67;86.53;101705.69;5018673;28;46372;-67
2022/07/23 08:02:23;;;;;;;;;44.25;37.50;;;;;25.73;86.21;101707.56;5022290;28;45495;-67
2022/07/23 08:04:49;;;;;;;;;51.25;41.00;;;;;26.13;85.37;101699.75;5014270;28;45310;-67
2022/07/23 08:07:15;;;;;;;;;51.75;42.50;;;;;26.31;83.91;101700.69;5025226;28;45378;-70
2022/07/23 08:09:40;;;;;;;;;54.50;41.75;;;;;26.15;83.68;101695.69;5011483;28;46158;-67
2022/07/23 08:12:06;;;;;;;;;51.25;41.75;;;;;26.32;83.26;101699.59;5024618;28;45255;-68
2022/07/23 08:14:31;;;;;;;;;46.00;37.00;;;;;26.40;82.89;101701.25;5018283;28;45457;-67
2022/07/23 08:16:56;;;;;;;;;58.25;42.75;;;;;26.44;81.69;101698.88;5022810;28;45550;-67
2022/07/23 08:19:22;;;;;;;;;53.25;42.00;;;;;26.26;81.97;101699.66;5016315;28;46246;-67
2022/07/23 08:21:47;;;;;;;;;48.25;41.00;;;;;25.99;83.53;101707.38;5021694;28;45348;-67
2022/07/23 08:24:12;;;;;;;;;52.00;41.25;;;;;26.28;82.85;101695.59;5016324;28;45370;-68
2022/07/23 08:26:38;;;;;;;;;52.75;43.00;;;;;26.31;81.78;101706.25;5019448;28;45379;-68
2022/07/23 08:29:03;;;;;;;;;51.00;39.25;;;;;26.08;81.03;101717.16;5013883;28;46309;-68
2022/07/23 08:31:29;;;;;;;;;51.75;42.00;;;;;26.05;83.21;101717.63;5017613;28;45224;-68
2022/07/23 08:33:54;;;;;;;;;53.50;43.50;;;;;25.97;83.56;101726.25;5018043;28;46298;-68
2022/07/23 08:36:20;;;;;;;;;60.50;42.00;;;;;26.19;83.11;101724.78;5015709;28;45443;-68
2022/07/23 08:38:45;;;;;;;;;48.50;38.50;;;;;26.33;81.28;101726.38;5019263;28;45764;-68
2022/07/23 08:41:11;;;;;;;;;49.75;38.75;;;;;26.60;79.60;101728.91;5021908;28;45396;-68
2022/07/23 08:43:36;;;;;;;;;44.50;36.50;;;;;27.15;74.83;101728.94;5020633;28;45453;-68
2022/07/23 08:46:03;;;;;;;;;48.75;39.00;;;;;27.76;70.83;101729.59;5020103;28;45385;-68
2022/07/23 08:48:33;;;;;;;;;47.00;39.00;;;;;27.71;70.36;101735.06;5017922;28;46831;-69
2022/07/23 08:51:01;;;;;;;;;44.50;38.75;;;;;28.23;68.96;101719.41;5021127;28;45488;-68
2022/07/23 08:53:28;;;;;;;;;49.50;40.00;;;;;28.59;66.49;101728.63;5021995;28;45330;-68
2022/07/23 08:55:56;;;;;;;;;45.75;37.00;;;;;28.57;66.72;101731.66;5015167;28;45533;-68
2022/07/23 08:58:22;;;;;;;;;41.50;35.25;;;;;28.69;67.11;101742.88;5020678;28;45257;-68
2022/07/23 09:00:49;;;;;;;;;46.50;37.50;;;;;28.63;66.92;101732.66;5015937;28;45410;-68
2022/07/23 09:03:18;;;;;;;;;51.50;41.00;;;;;28.35;68.00;101733.38;5017534;28;45232;-68
2022/07/23 09:05:45;;;;;;;;;45.00;36.00;;;;;28.13;68.28;101741.47;5018042;28;45378;-68
2022/07/23 09:08:18;;;;;;;;;46.00;38.75;;;;;28.07;69.31;101730.41;5019295;28;45363;-68
2022/07/23 09:10:55;;;;;;;;;38.75;34.25;;;;;27.75;70.31;101735.44;5015741;28;45418;-69
2022/07/23 09:13:45;;;;;;;;;46.00;36.75;;;;;27.87;69.51;101728.78;5018724;28;45240;-68
2022/07/23 09:16:11;;;;;;;;;52.00;40.50;;;;;27.60;71.34;101733.09;5014641;28;45442;-68
2022/07/23 09:18:46;;;;;;;;;45.50;36.25;;;;;27.57;70.43;101727.97;5012003;28;46167;-68
2022/07/23 09:21:32;;;;;;;;;47.25;36.75;;;;;27.93;69.09;101717.75;5018740;28;45441;-67
2022/07/23 09:23:58;;;;;;;;;45.00;37.25;;;;;27.71;70.47;101729.47;5016930;28;45367;-67
2022/07/23 09:26:38;;;;;;;;;45.75;37.50;;;;;27.97;69.56;101732.94;5021346;28;45314;-67
2022/07/23 09:29:18;;;;;;;;;37.50;33.75;;;;;28.23;67.08;101725.00;5015423;28;46730;-69
2022/07/23 09:31:52;;;;;;;;;44.00;34.75;;;;;28.41;67.72;101729.63;5019550;28;45411;-69
2022/07/23 09:34:20;;;;;;;;;40.75;35.00;;;;;28.83;65.75;101724.75;5018793;28;45346;-71
2022/07/23 09:36:47;;;;;;;;;47.00;38.50;;;;;28.67;63.92;101725.47;5017684;28;45319;-69
2022/07/23 09:39:15;;;;;;;;;48.25;38.25;;;;;28.60;63.76;101725.59;5018557;28;45600;-68
2022/07/23 09:41:43;;;;;;;;;41.75;32.75;;;;;29.15;63.69;101729.94;5023362;28;45401;-68
2022/07/23 09:44:19;;;;;;;;;43.75;35.25;;;;;29.24;60.88;101706.88;5016749;28;45816;-68
2022/07/23 09:46:47;;;;;;;;;38.75;33.75;;;;;29.26;60.77;101721.50;5022418;28;45344;-68
2022/07/23 09:49:21;;;;;;;;;48.00;38.50;;;;;28.63;63.62;101732.66;5016200;28;46488;-68
2022/07/23 09:51:48;;;;;;;;;44.25;36.25;;;;;29.09;63.29;101725.31;5022504;28;45304;-68
2022/07/23 09:54:32;;;;;;;;;45.75;34.75;;;;;29.18;61.37;101730.28;5013852;28;45215;-68
2022/07/23 09:57:01;;;;;;;;;44.50;38.75;;;;;29.13;61.29;101716.19;5012837;28;45242;-68
2022/07/23 09:59:33;;;;;;;;;40.50;32.50;;;;;29.37;60.97;101717.81;5015061;28;46066;-68
2022/07/23 10:01:59;;;;;;;;;45.00;36.75;;;;;29.24;58.83;101720.03;5013049;28;45228;-67
2022/07/23 10:04:26;;;;;;;;;37.25;32.75;;;;;29.69;59.05;101717.31;5015225;28;45394;-68
2022/07/23 10:06:54;;;;;;;;;35.00;32.25;;;;;30.35;56.47;101718.47;5023046;28;45431;-68
2022/07/23 10:09:40;;;;;;;;;32.00;30.00;;;;;30.91;54.95;101708.94;5013733;28;45621;-67
2022/07/23 10:14:48;;;;;;;;;33.75;30.00;;;;;32.15;52.72;101716.56;5010339;28;45493;-68
2022/07/23 10:17:13;;;;;;;;;39.75;32.50;;;;;32.57;47.55;101716.59;5023262;28;45414;-68
2022/07/23 10:19:39;;;;;;;;;39.00;34.75;;;;;32.07;49.61;101715.91;5015458;28;45530;-67
2022/07/23 10:22:11;;;;;;;;;39.75;32.25;;;;;31.27;52.71;101721.50;5019803;28;45301;-68
2022/07/23 10:24:45;;;;;;;;;38.50;33.50;;;;;31.34;51.41;101722.19;5016489;28;45382;-69
2022/07/23 10:27:26;;;;;;;;;36.00;33.00;;;;;30.25;53.96;101718.31;5021700;28;45387;-68
2022/07/23 10:30:33;;;;;;;;;26.00;23.00;;;;;30.85;53.96;101719.25;5015535;28;45660;-68
2022/07/23 10:33:19;;;;;;;;;36.25;30.25;;;;;31.31;53.39;101717.06;4988293;28;45386;-68
2022/07/23 10:35:55;;;;;;;;;34.50;31.75;;;;;31.48;51.89;101722.63;5029409;28;45405;-69
2022/07/23 10:38:27;;;;;;;;;39.25;34.50;;;;;31.12;52.52;101724.16;5019556;28;45495;-68
2022/07/23 10:40:58;;;;;;;;;31.00;28.25;;;;;30.54;53.18;101731.13;5020238;28;46609;-68
2022/07/23 10:43:24;;;;;;;;;34.50;29.75;;;;;30.42;54.79;101731.22;5018528;28;45346;-68
2022/07/23 10:45:50;;;;;;;;;29.50;29.25;;;;;29.73;55.64;101743.72;5019049;28;45433;-68
2022/07/23 10:48:25;;;;;;;;;36.00;32.25;;;;;29.65;57.50;101749.75;5017636;28;45334;-68
2022/07/23 10:51:11;;;;;;;;;39.25;34.00;;;;;29.51;57.74;101749.19;5015101;28;47259;-69
2022/07/23 10:53:52;;;;;;;;;31.75;30.00;;;;;30.42;56.60;101739.63;5016282;28;45329;-68
2022/07/23 10:56:49;;;;;;;;;45.25;35.75;;;;;29.89;54.59;101756.03;5020318;28;45397;-68
2022/07/23 10:59:14;;;;;;;;;26.50;26.50;;;;;30.26;53.65;101742.44;5014222;28;45516;-69
2022/07/23 11:01:40;;;;;;;;;42.25;32.25;;;;;30.10;54.87;101752.56;5019417;28;45429;-68
2022/07/23 11:04:07;;;;;;;;;39.50;33.50;;;;;30.27;54.83;101749.75;5016495;28;45375;-69
2022/07/23 11:06:48;;;;;;;;;34.50;29.75;;;;;30.47;55.11;101748.13;5019180;28;45244;-69
2022/07/23 11:09:38;;;;;;;;;35.00;31.00;;;;;31.02;54.15;101758.50;5013549;28;45390;-68